ホバート の空港の天気 - METARとTAF

ホバート国際空港 ( YMHB / HBA ) - オーストラリア タスマニア州、Cambridge
飛行場実況気象(Metar)
観測時間08/26 05:00 AEST (08/25 19:00 UTC)
風向・風速北北西 5m/s
視程10km以上
天気現象
少しの雲 雲底高度 1070m
気温6℃
湿度81%
気圧1018hPa
METARYMHB 251900Z 33009KT 9999 FEW035 06/03 Q1018
過去の天気等 Google飛行場航空写真 Wunderground天気予報

過去48時間のMETAR

飛行場予報(TAF)
発表時間: 8/26 03:05 AEST (8/25 17:05 UTC)
予報対象時間: 26日4時 AEST ~ 27日4時 AEST
風向・風速北北西 5m/s
視程10km以上
少しの雲 雲底高度 1220m
26日11時 AEST から
風向・風速西北西 7m/s
視程10km以上
全天の8割程度の雲 雲底高度 1520m
26日18時 AEST から
風向・風速北北西 4m/s
視程10km以上
全天の4割程度の雲 雲底高度 1070m
26日22時 AEST から
風向・風速北 7m/s
視程10km以上
全天の8割程度の雲 雲底高度 1070m
TAF YMHB 251705Z 2518/2618 33010KT 9999 FEW040
FM260100 30014KT 9999 BKN050
FM260800 34008KT 9999 SCT035
FM261200 35014KT 9999 BKN035